Terminal Aerodrome Forecast
Issued by NWS

Home | Current Version | Previous Version | Text Only | Print | Product List | Glossary On
Versions: 1 2 3 4 5 6 7 8 9 10 11 12 13 14 15 16 17 18 19 20 21
000
FTUS41 KPBZ 300500
TAFZZV
TAF
KZZV 300536Z 3006/3106 30010G20KT P6SM -SHSN OVC015
      TEMPO 3006/3008 3SM -SHSN BKN008 OVC015
     FM301400 31011G22KT P6SM BKN020
     FM310000 31007KT P6SM SCT020=

USA.gov is the U.S. government's official web portal to all federal, state and local government web resources and services.